Airport View

Enter AWOS ICAO identifier for current METAR.

ex. KFNL

KDNS 200005Z AUTO 10008KT 10SM FEW038 BKN050 OVC060 01/M00 A3020 RMK AO2

20 Oct 2020 00:07

Frequency: 119.95

Phone: 712-263-6558

Other Area AWOS: KHNR - KCIN - KADU - KSLB

TAF KOMA 192343Z 2000/2024 11006KT P6SM BKN120 FM201200 13010KT P6SM BKN025 FM201500 14010KT P6SM OVC015 FM201900 15010KT P6SM OVC025 FM202300 17008KT P6SM BKN040